Time;durP1;ratioP1;P1;durP2;ratioP2;P2;SDS_P1;SDS_P2;PMS_P1;PMS_P2;Temp;Humidity;BMP_temperature;BMP_pressure;BME280_temperature;BME280_humidity;BME280_pressure;Samples;Min_cycle;Max_cycle;Signal;HPM_P1;HPM_P2
2021/09/02 00:01:12;;;;;;;7.80;5.95;;;17.50;92.30;;;;;;5028599;28;20387;-65
2021/09/02 00:03:37;;;;;;;7.68;5.55;;;17.40;92.30;;;;;;5039113;28;20013;-65
2021/09/02 00:06:03;;;;;;;8.65;5.68;;;17.50;92.40;;;;;;5040485;28;20078;-66
2021/09/02 00:08:28;;;;;;;10.23;6.18;;;17.40;92.40;;;;;;5064137;28;20028;-65
2021/09/02 00:10:54;;;;;;;8.27;6.45;;;17.50;92.40;;;;;;5059035;28;20392;-65
2021/09/02 00:13:19;;;;;;;8.68;6.40;;;17.40;92.40;;;;;;5063285;28;20031;-65
2021/09/02 00:15:45;;;;;;;9.93;6.32;;;17.50;92.50;;;;;;5065199;28;20033;-65
2021/09/02 00:18:11;;;;;;;11.00;6.57;;;17.50;92.50;;;;;;5063534;28;20024;-65
2021/09/02 00:20:36;;;;;;;8.85;6.80;;;17.50;92.50;;;;;;5048766;28;20021;-65
2021/09/02 00:23:02;;;;;;;8.70;6.18;;;17.40;92.50;;;;;;5067834;28;20040;-65
2021/09/02 00:25:27;;;;;;;10.63;6.07;;;17.50;92.60;;;;;;5065957;28;20051;-65
2021/09/02 00:27:53;;;;;;;11.20;6.72;;;17.50;92.60;;;;;;5064777;28;20385;-65
2021/09/02 00:30:19;;;;;;;9.40;6.63;;;17.40;92.60;;;;;;5047223;28;20112;-65
2021/09/02 00:32:44;;;;;;;9.65;6.47;;;17.50;92.70;;;;;;5067058;28;20091;-65
2021/09/02 00:35:10;;;;;;;8.90;6.88;;;17.40;92.70;;;;;;5061331;28;20029;-65
2021/09/02 00:37:36;;;;;;;9.30;6.25;;;17.50;92.80;;;;;;5062698;28;20056;-65
2021/09/02 00:40:02;;;;;;;9.48;6.50;;;17.40;92.80;;;;;;5048002;28;20049;-66
2021/09/02 00:42:27;;;;;;;7.97;7.05;;;17.40;92.80;;;;;;5061886;28;20538;-65
2021/09/02 00:44:53;;;;;;;9.13;7.18;;;17.40;92.80;;;;;;5061860;28;20040;-65
2021/09/02 00:47:20;;;;;;;11.23;6.60;;;17.40;92.80;;;;;;5064330;28;20067;-65
2021/09/02 00:49:46;;;;;;;8.48;7.15;;;17.40;92.90;;;;;;5065513;28;20468;-65
2021/09/02 00:52:17;;;;;;;8.15;6.15;;;17.40;92.90;;;;;;5045389;28;20109;-66
2021/09/02 00:54:54;;;;;;;9.57;6.43;;;17.40;93.00;;;;;;5045611;28;20052;-65
2021/09/02 00:57:23;;;;;;;8.95;6.63;;;17.40;93.00;;;;;;5045278;28;20064;-65
2021/09/02 00:59:56;;;;;;;12.20;6.47;;;17.30;93.00;;;;;;5065076;28;20021;-66
2021/09/02 01:02:29;;;;;;;10.77;6.80;;;17.30;93.10;;;;;;5046938;28;20083;-65
2021/09/02 01:04:59;;;;;;;10.20;6.68;;;17.40;93.10;;;;;;5067530;28;20040;-65
2021/09/02 01:07:26;;;;;;;9.25;6.95;;;17.40;93.10;;;;;;5065041;28;20020;-65
2021/09/02 01:09:56;;;;;;;8.02;6.65;;;17.30;93.10;;;;;;5062035;28;20017;-65
2021/09/02 01:12:33;;;;;;;9.80;7.03;;;17.30;93.10;;;;;;5045329;28;20025;-65
2021/09/02 01:15:07;;;;;;;9.30;6.93;;;17.30;93.10;;;;;;5058445;28;20031;-65
2021/09/02 01:17:33;;;;;;;9.88;6.88;;;17.30;93.20;;;;;;5058539;28;20108;-66
2021/09/02 01:19:59;;;;;;;10.43;6.72;;;17.30;93.20;;;;;;5061200;28;20025;-65
2021/09/02 01:22:27;;;;;;;9.82;6.95;;;17.30;93.30;;;;;;5063764;28;20046;-65
2021/09/02 01:25:06;;;;;;;10.07;7.57;;;17.30;93.30;;;;;;5064392;28;20023;-66
2021/09/02 01:27:32;;;;;;;9.65;6.95;;;17.30;93.30;;;;;;5047992;28;20401;-65
2021/09/02 01:29:59;;;;;;;9.38;7.32;;;17.20;93.40;;;;;;5067507;28;20540;-65
2021/09/02 01:32:27;;;;;;;9.35;7.28;;;17.20;93.40;;;;;;5068384;28;20043;-65
2021/09/02 01:34:54;;;;;;;11.20;7.22;;;17.20;93.50;;;;;;5066299;28;20047;-65
2021/09/02 01:37:20;;;;;;;8.55;6.65;;;17.20;93.50;;;;;;5050005;28;20446;-65
2021/09/02 01:39:48;;;;;;;11.60;7.32;;;17.20;93.50;;;;;;5066583;28;20045;-65
2021/09/02 01:42:14;;;;;;;9.45;6.35;;;17.20;93.80;;;;;;5065785;28;20380;-65
2021/09/02 01:44:39;;;;;;;10.80;7.40;;;17.20;93.60;;;;;;5044313;28;20024;-65
2021/09/02 01:47:25;;;;;;;11.63;7.40;;;17.20;93.70;;;;;;5069236;28;20024;-65
2021/09/02 01:49:53;;;;;;;9.02;6.95;;;17.20;93.60;;;;;;5060853;28;20035;-65
2021/09/02 01:52:20;;;;;;;9.45;7.13;;;17.10;93.70;;;;;;5064614;28;20143;-65
2021/09/02 01:54:46;;;;;;;11.55;6.90;;;17.10;93.80;;;;;;5049754;28;20506;-65
2021/09/02 01:57:13;;;;;;;9.55;7.05;;;17.10;93.80;;;;;;5060805;28;20287;-66
2021/09/02 01:59:39;;;;;;;11.15;8.43;;;17.10;93.80;;;;;;5066618;28;20029;-65
2021/09/02 02:02:05;;;;;;;9.32;6.20;;;17.10;93.90;;;;;;5065856;28;20070;-65
2021/09/02 02:04:30;;;;;;;8.57;6.68;;;17.10;93.90;;;;;;5063424;28;20031;-65
2021/09/02 02:06:56;;;;;;;8.70;6.80;;;17.10;93.90;;;;;;5064268;28;20020;-65
2021/09/02 02:09:21;;;;;;;9.13;6.80;;;17.10;94.00;;;;;;5061946;28;20025;-65
2021/09/02 02:11:47;;;;;;;11.07;7.05;;;17.10;94.00;;;;;;5057187;28;20380;-65
2021/09/02 02:14:12;;;;;;;11.35;8.50;;;17.10;94.00;;;;;;5061065;28;20477;-65
2021/09/02 02:16:38;;;;;;;9.40;7.32;;;17.00;94.00;;;;;;5061097;28;20368;-65
2021/09/02 02:19:04;;;;;;;12.85;7.38;;;17.00;94.10;;;;;;5068429;28;20548;-65
2021/09/02 02:21:29;;;;;;;7.70;6.90;;;16.90;94.10;;;;;;5069148;28;20100;-65
2021/09/02 02:23:55;;;;;;;10.48;6.90;;;16.90;94.20;;;;;;5067576;28;20027;-65
2021/09/02 02:26:20;;;;;;;9.30;6.25;;;16.90;94.30;;;;;;5047300;28;20016;-65
2021/09/02 02:28:46;;;;;;;8.95;7.25;;;16.90;94.30;;;;;;5061712;28;20109;-65
2021/09/02 02:31:11;;;;;;;7.97;6.72;;;16.90;94.40;;;;;;5066441;28;20039;-65
2021/09/02 02:33:37;;;;;;;8.40;6.55;;;16.90;94.40;;;;;;5042885;28;20052;-65
2021/09/02 02:36:02;;;;;;;10.10;6.50;;;16.90;94.40;;;;;;5062702;28;20036;-65
2021/09/02 02:38:28;;;;;;;9.82;7.40;;;16.90;94.40;;;;;;5063991;28;20041;-65
2021/09/02 02:40:54;;;;;;;7.82;6.45;;;16.90;94.40;;;;;;5063935;28;20031;-65
2021/09/02 02:43:19;;;;;;;8.02;6.32;;;16.80;94.50;;;;;;5065794;28;20028;-65
2021/09/02 02:45:45;;;;;;;8.60;6.65;;;16.80;94.50;;;;;;5059708;28;20025;-65
2021/09/02 02:48:10;;;;;;;10.02;6.80;;;16.80;94.60;;;;;;5062459;28;20024;-65
2021/09/02 02:50:36;;;;;;;15.38;8.02;;;16.70;94.60;;;;;;5061806;28;20074;-65
2021/09/02 02:53:01;;;;;;;9.73;6.68;;;16.70;94.60;;;;;;5061163;28;20021;-65
2021/09/02 02:55:27;;;;;;;9.02;6.82;;;16.80;94.70;;;;;;5059862;28;20025;-65
2021/09/02 02:57:54;;;;;;;10.10;6.93;;;16.80;94.70;;;;;;5061042;28;20485;-65
2021/09/02 03:00:19;;;;;;;8.98;6.90;;;16.80;94.70;;;;;;5056986;28;20051;-65
2021/09/02 03:02:45;;;;;;;9.95;6.80;;;16.80;94.70;;;;;;5064109;28;20472;-65
2021/09/02 03:05:11;;;;;;;8.93;6.80;;;16.80;94.70;;;;;;5065701;28;20024;-65
2021/09/02 03:07:37;;;;;;;8.68;6.80;;;16.80;94.70;;;;;;5045402;28;20028;-65
2021/09/02 03:10:05;;;;;;;7.85;7.00;;;16.80;94.80;;;;;;5060790;28;20100;-65
2021/09/02 03:12:30;;;;;;;9.73;6.85;;;16.70;94.70;;;;;;5064370;28;20051;-65
2021/09/02 03:14:56;;;;;;;11.43;7.47;;;16.70;94.80;;;;;;5060996;28;20519;-65
2021/09/02 03:17:41;;;;;;;10.55;6.35;;;16.70;94.80;;;;;;5043907;28;20042;-65
2021/09/02 03:20:08;;;;;;;8.68;5.85;;;16.70;94.90;;;;;;5018068;28;20448;-65
2021/09/02 03:22:33;;;;;;;9.85;7.05;;;16.70;94.90;;;;;;5060529;28;20104;-65
2021/09/02 03:24:59;;;;;;;10.07;6.82;;;16.70;94.90;;;;;;5057934;28;20096;-65
2021/09/02 03:27:25;;;;;;;9.00;7.18;;;16.70;94.90;;;;;;5041660;28;20468;-65
2021/09/02 03:29:50;;;;;;;8.95;6.78;;;16.70;94.90;;;;;;5063036;28;20031;-65
2021/09/02 03:32:16;;;;;;;9.13;6.82;;;16.70;94.90;;;;;;5059795;28;20033;-65
2021/09/02 03:34:42;;;;;;;11.23;6.85;;;16.70;94.90;;;;;;5060189;28;20139;-65
2021/09/02 03:37:07;;;;;;;8.02;6.45;;;16.70;95.00;;;;;;5038799;28;20132;-65
2021/09/02 03:39:33;;;;;;;7.72;6.75;;;16.70;95.00;;;;;;5063584;28;20147;-65
2021/09/02 03:41:58;;;;;;;10.27;7.07;;;16.70;95.00;;;;;;5069197;28;20020;-65
2021/09/02 03:44:24;;;;;;;8.63;6.35;;;16.70;95.00;;;;;;5065807;28;21173;-65
2021/09/02 03:46:50;;;;;;;8.70;6.40;;;16.70;95.00;;;;;;5051361;28;20032;-65
2021/09/02 03:49:15;;;;;;;8.20;6.40;;;16.70;95.00;;;;;;5068746;28;20025;-65
2021/09/02 03:51:41;;;;;;;8.68;6.65;;;16.70;95.00;;;;;;5064315;28;20024;-65
2021/09/02 03:54:06;;;;;;;8.90;6.95;;;16.70;95.00;;;;;;5066670;28;20020;-66
2021/09/02 03:56:32;;;;;;;10.43;7.57;;;16.70;95.00;;;;;;5067154;28;20268;-65
2021/09/02 03:58:58;;;;;;;9.05;6.70;;;16.70;95.00;;;;;;5060382;28;20123;-65
2021/09/02 04:01:25;;;;;;;9.00;6.65;;;16.70;95.00;;;;;;5067126;28;20535;-65
2021/09/02 04:03:51;;;;;;;8.48;6.35;;;16.70;95.00;;;;;;5073827;28;20013;-65
2021/09/02 04:06:17;;;;;;;7.32;6.38;;;16.70;95.10;;;;;;5068621;28;20496;-65
2021/09/02 04:08:42;;;;;;;7.97;6.60;;;16.70;95.10;;;;;;5064064;28;20021;-65
2021/09/02 04:11:08;;;;;;;8.75;6.65;;;16.70;95.10;;;;;;5060120;28;20530;-65
2021/09/02 04:13:33;;;;;;;8.75;6.72;;;16.60;95.10;;;;;;5063843;28;20029;-65
2021/09/02 04:15:59;;;;;;;7.45;6.18;;;16.60;95.10;;;;;;5064435;28;20074;-65
2021/09/02 04:18:24;;;;;;;6.88;6.18;;;16.60;95.00;;;;;;5066704;28;20159;-65
2021/09/02 04:20:50;;;;;;;10.82;6.32;;;16.60;95.10;;;;;;5057094;28;20024;-65
2021/09/02 04:23:15;;;;;;;8.48;6.28;;;16.60;95.10;;;;;;5065783;28;20029;-65
2021/09/02 04:25:41;;;;;;;7.43;5.75;;;16.60;95.40;;;;;;5068447;28;20017;-65
2021/09/02 04:28:06;;;;;;;9.23;5.72;;;16.60;95.10;;;;;;5066198;28;20036;-65
2021/09/02 04:30:32;;;;;;;7.43;5.50;;;16.60;95.10;;;;;;5064900;28;20039;-65
2021/09/02 04:32:58;;;;;;;7.97;6.07;;;16.60;95.10;;;;;;5061571;28;20514;-65
2021/09/02 04:35:23;;;;;;;6.75;5.53;;;16.60;95.10;;;;;;5066269;28;20025;-65
2021/09/02 04:37:49;;;;;;;8.27;5.82;;;16.60;95.10;;;;;;5067496;28;20048;-65
2021/09/02 04:40:16;;;;;;;11.25;5.88;;;16.60;95.20;;;;;;5043754;28;20031;-65
2021/09/02 04:42:42;;;;;;;5.93;5.15;;;16.60;95.20;;;;;;5065471;28;20041;-65
2021/09/02 04:45:08;;;;;;;8.35;5.63;;;16.60;95.20;;;;;;5059804;28;20385;-65
2021/09/02 04:47:34;;;;;;;8.23;5.82;;;16.60;95.20;;;;;;5070016;28;20092;-65
2021/09/02 04:49:59;;;;;;;9.05;6.10;;;16.60;95.20;;;;;;5060116;28;20105;-65
2021/09/02 04:52:25;;;;;;;9.88;6.15;;;16.60;95.20;;;;;;5065103;28;20037;-65
2021/09/02 04:54:51;;;;;;;12.70;6.97;;;16.60;95.20;;;;;;5045268;28;20035;-65
2021/09/02 04:57:19;;;;;;;9.73;6.43;;;16.60;95.30;;;;;;5065322;28;20029;-65
2021/09/02 04:59:45;;;;;;;8.10;5.90;;;16.60;95.30;;;;;;5068001;28;20045;-65
2021/09/02 05:02:11;;;;;;;9.35;6.30;;;16.60;95.30;;;;;;5067129;28;20036;-65
2021/09/02 05:04:37;;;;;;;8.18;6.40;;;16.60;95.30;;;;;;5064264;28;20385;-65
2021/09/02 05:07:02;;;;;;;8.27;5.60;;;16.50;95.30;;;;;;5052492;28;20488;-65
2021/09/02 05:09:28;;;;;;;8.00;6.03;;;16.60;95.40;;;;;;5062017;28;20053;-65
2021/09/02 05:11:53;;;;;;;9.88;6.22;;;16.60;95.40;;;;;;5053496;28;20021;-65
2021/09/02 05:14:19;;;;;;;7.68;5.80;;;16.60;95.40;;;;;;5053878;28;20033;-65
2021/09/02 05:16:44;;;;;;;9.05;6.55;;;16.60;95.50;;;;;;5036160;28;20120;-65
2021/09/02 05:19:10;;;;;;;8.65;6.10;;;16.60;95.50;;;;;;5036174;28;20025;-65
2021/09/02 05:21:36;;;;;;;10.10;7.30;;;16.60;95.50;;;;;;5036092;28;20425;-65
2021/09/02 05:24:01;;;;;;;10.30;7.97;;;16.50;95.50;;;;;;5053888;28;20017;-65
2021/09/02 05:26:27;;;;;;;9.95;6.80;;;16.50;95.60;;;;;;5036056;28;20029;-65
2021/09/02 05:28:52;;;;;;;9.68;7.28;;;16.50;95.60;;;;;;5053999;28;20029;-65
2021/09/02 05:31:18;;;;;;;9.75;6.97;;;16.50;95.70;;;;;;5053838;28;20060;-65
2021/09/02 05:33:44;;;;;;;10.68;7.55;;;16.50;95.80;;;;;;5035952;28;20098;-65
2021/09/02 05:36:10;;;;;;;9.48;7.15;;;16.50;95.80;;;;;;5053394;28;20021;-65
2021/09/02 05:38:35;;;;;;;9.32;7.28;;;16.50;95.80;;;;;;5049034;28;20047;-65
2021/09/02 05:41:01;;;;;;;12.07;7.35;;;16.50;95.80;;;;;;5071572;28;20415;-65
2021/09/02 05:43:27;;;;;;;9.55;7.75;;;16.50;95.90;;;;;;5072745;28;20388;-65
2021/09/02 05:45:52;;;;;;;10.25;7.63;;;16.50;95.90;;;;;;5072318;28;20449;-65
2021/09/02 05:48:18;;;;;;;11.80;8.05;;;16.60;95.90;;;;;;5071549;28;20041;-65
2021/09/02 05:50:43;;;;;;;12.57;8.75;;;16.60;95.90;;;;;;5054683;28;20027;-65
2021/09/02 05:53:09;;;;;;;9.48;7.95;;;16.60;95.90;;;;;;5053275;28;20032;-65
2021/09/02 05:55:36;;;;;;;10.68;8.32;;;16.60;96.00;;;;;;5053224;28;20087;-65
2021/09/02 05:58:02;;;;;;;14.88;8.55;;;16.60;96.00;;;;;;5053449;28;20044;-65
2021/09/02 06:00:27;;;;;;;15.52;8.10;;;16.70;96.00;;;;;;5052594;28;20068;-65
2021/09/02 06:02:53;;;;;;;10.55;7.22;;;16.70;95.90;;;;;;5053126;28;20029;-65
2021/09/02 06:05:18;;;;;;;11.75;7.70;;;16.70;95.90;;;;;;5053139;28;20029;-65
2021/09/02 06:07:44;;;;;;;10.80;7.63;;;16.80;95.90;;;;;;5052901;28;20029;-65
2021/09/02 06:10:10;;;;;;;9.40;7.35;;;16.80;95.90;;;;;;5064429;28;20357;-65
2021/09/02 06:12:36;;;;;;;12.27;8.30;;;16.80;95.90;;;;;;5054458;28;20021;-65
2021/09/02 06:15:01;;;;;;;10.15;8.32;;;16.90;95.90;;;;;;5069982;28;20013;-65
2021/09/02 06:17:27;;;;;;;14.48;9.43;;;16.90;95.90;;;;;;5053019;28;20032;-65
2021/09/02 06:19:52;;;;;;;11.02;7.85;;;16.90;95.90;;;;;;5070050;28;20024;-65
2021/09/02 06:22:18;;;;;;;13.60;9.05;;;16.90;95.90;;;;;;5069301;28;20025;-65
2021/09/02 06:24:43;;;;;;;11.40;7.85;;;16.90;95.90;;;;;;5064692;28;20021;-65
2021/09/02 06:27:09;;;;;;;10.57;7.57;;;16.90;95.90;;;;;;5052681;28;20469;-65
2021/09/02 06:29:34;;;;;;;9.93;8.20;;;16.90;95.90;;;;;;5052862;28;20496;-65
2021/09/02 06:32:02;;;;;;;10.77;6.93;;;17.00;95.90;;;;;;5052992;28;20040;-65
2021/09/02 06:34:27;;;;;;;11.98;7.15;;;17.00;95.90;;;;;;5042932;28;20025;-65
2021/09/02 06:36:53;;;;;;;9.68;6.35;;;17.00;95.80;;;;;;5066382;28;20113;-65
2021/09/02 06:39:18;;;;;;;11.00;6.68;;;17.00;95.70;;;;;;5071772;28;20044;-65
2021/09/02 06:41:44;;;;;;;11.82;7.78;;;17.10;95.70;;;;;;5071960;28;20046;-65
2021/09/02 06:44:10;;;;;;;11.65;8.07;;;17.10;95.60;;;;;;5071853;28;20091;-65
2021/09/02 06:46:35;;;;;;;13.70;7.88;;;17.20;95.50;;;;;;5066722;28;20013;-65
2021/09/02 06:49:01;;;;;;;9.30;7.13;;;17.30;95.40;;;;;;5068245;28;20033;-65
2021/09/02 06:51:27;;;;;;;10.25;6.38;;;17.30;95.30;;;;;;5051049;28;20029;-65
2021/09/02 06:53:52;;;;;;;10.50;6.65;;;17.30;95.30;;;;;;5050735;28;20033;-66
2021/09/02 06:56:18;;;;;;;8.50;5.80;;;17.30;95.20;;;;;;5060006;28;20063;-65
2021/09/02 06:58:44;;;;;;;10.82;6.63;;;17.40;95.20;;;;;;5047546;28;20025;-66
2021/09/02 07:01:13;;;;;;;8.93;5.50;;;17.40;95.20;;;;;;5052381;28;20052;-65
2021/09/02 07:03:39;;;;;;;9.13;6.20;;;17.40;95.10;;;;;;5052405;28;20477;-65
2021/09/02 07:06:05;;;;;;;11.35;7.75;;;17.50;95.10;;;;;;5052186;28;20459;-65
2021/09/02 07:08:30;;;;;;;13.55;6.75;;;17.60;95.20;;;;;;5066188;28;20536;-65
2021/09/02 07:10:56;;;;;;;12.93;7.93;;;17.60;94.80;;;;;;5070785;28;20031;-65
2021/09/02 07:13:21;;;;;;;12.98;7.72;;;17.60;94.60;;;;;;5064074;28;20177;-65
2021/09/02 07:15:47;;;;;;;9.25;5.70;;;17.70;94.50;;;;;;5070046;28;20020;-65
2021/09/02 07:18:12;;;;;;;9.10;6.15;;;17.70;94.40;;;;;;5075664;28;20542;-65
2021/09/02 07:20:38;;;;;;;10.88;6.38;;;17.80;94.20;;;;;;5046801;28;20025;-65
2021/09/02 07:23:03;;;;;;;10.57;6.25;;;17.90;94.00;;;;;;5074704;28;20025;-65
2021/09/02 07:25:29;;;;;;;12.95;7.90;;;18.00;93.80;;;;;;5060678;28;20025;-65
2021/09/02 07:27:54;;;;;;;12.60;6.97;;;18.00;93.60;;;;;;5059284;28;20017;-65
2021/09/02 07:30:20;;;;;;;10.75;6.10;;;18.10;93.60;;;;;;5067289;28;20028;-65
2021/09/02 07:32:45;;;;;;;12.30;6.03;;;18.10;93.50;;;;;;5055592;28;20021;-65
2021/09/02 07:35:11;;;;;;;8.57;5.65;;;18.10;93.30;;;;;;5056058;28;20029;-65
2021/09/02 07:37:37;;;;;;;8.38;5.43;;;18.00;93.00;;;;;;5055637;28;20029;-65
2021/09/02 07:40:03;;;;;;;9.82;6.13;;;18.10;93.20;;;;;;5055569;28;20045;-65
2021/09/02 07:42:29;;;;;;;10.80;4.78;;;18.10;92.70;;;;;;5055803;28;20024;-65
2021/09/02 07:44:55;;;;;;;8.48;5.20;;;18.10;92.60;;;;;;5055749;28;20033;-65
2021/09/02 07:47:21;;;;;;;7.82;5.65;;;18.10;92.30;;;;;;5055824;28;20025;-65
2021/09/02 07:49:46;;;;;;;8.13;5.68;;;18.20;92.20;;;;;;5055619;28;20480;-65
2021/09/02 07:52:12;;;;;;;8.15;5.40;;;18.20;92.10;;;;;;5055504;28;20028;-65
2021/09/02 07:54:38;;;;;;;8.70;5.13;;;18.20;92.00;;;;;;5053819;28;20031;-65
2021/09/02 07:57:04;;;;;;;10.60;5.40;;;18.30;92.10;;;;;;5055438;28;20025;-65
2021/09/02 07:59:29;;;;;;;11.52;6.13;;;18.30;92.00;;;;;;5053482;28;20493;-65
2021/09/02 08:01:55;;;;;;;9.23;5.28;;;18.30;92.20;;;;;;5037479;28;20501;-65
2021/09/02 08:04:20;;;;;;;6.47;4.50;;;18.40;91.80;;;;;;5055520;28;20017;-65
2021/09/02 08:06:53;;;;;;;8.35;4.60;;;18.40;91.80;;;;;;5054993;28;20025;-66
2021/09/02 08:09:19;;;;;;;6.75;4.43;;;18.50;91.70;;;;;;5055378;28;20020;-65
2021/09/02 08:11:44;;;;;;;10.75;6.15;;;18.50;91.60;;;;;;5055294;28;20051;-65
2021/09/02 08:14:10;;;;;;;9.60;5.00;;;18.60;91.30;;;;;;5055315;28;20132;-65
2021/09/02 08:16:35;;;;;;;8.93;4.53;;;18.60;91.30;;;;;;5055139;28;20029;-65
2021/09/02 08:19:01;;;;;;;8.20;5.05;;;18.70;91.20;;;;;;5054974;28;20412;-65
2021/09/02 08:21:30;;;;;;;8.70;5.28;;;18.70;91.20;;;;;;5047739;28;20029;-65
2021/09/02 08:23:58;;;;;;;8.55;5.00;;;18.80;91.00;;;;;;5007882;28;20344;-65
2021/09/02 08:26:23;;;;;;;9.73;5.63;;;18.90;90.90;;;;;;5055032;28;20028;-65
2021/09/02 08:28:49;;;;;;;6.80;4.55;;;19.00;90.70;;;;;;5054678;28;20029;-65
2021/09/02 08:31:14;;;;;;;7.57;4.32;;;19.10;90.40;;;;;;5054972;28;20025;-65
2021/09/02 08:33:40;;;;;;;6.35;3.72;;;19.20;90.30;;;;;;5054698;28;20032;-66
2021/09/02 08:36:05;;;;;;;8.48;5.20;;;19.40;90.20;;;;;;5042697;28;20032;-65
2021/09/02 08:38:31;;;;;;;5.97;4.13;;;19.50;89.60;;;;;;5036953;28;20400;-66
2021/09/02 08:40:57;;;;;;;9.90;5.68;;;19.60;89.00;;;;;;5054480;28;20064;-65
2021/09/02 08:43:24;;;;;;;7.10;5.07;;;19.60;88.60;;;;;;5054414;28;20518;-65
2021/09/02 08:45:49;;;;;;;8.75;5.70;;;19.80;88.20;;;;;;5054531;28;20021;-66
2021/09/02 08:48:16;;;;;;;9.60;4.90;;;19.90;87.70;;;;;;5054115;28;20036;-66
2021/09/02 08:50:41;;;;;;;9.25;5.53;;;20.00;87.20;;;;;;5054478;28;20055;-65
2021/09/02 08:53:08;;;;;;;5.63;4.00;;;20.00;85.80;;;;;;5054252;28;20028;-65
2021/09/02 08:55:37;;;;;;;9.68;4.65;;;20.10;85.90;;;;;;5036547;28;20040;-65
2021/09/02 08:58:03;;;;;;;8.32;3.90;;;20.10;85.90;;;;;;5050993;28;20098;-65
2021/09/02 09:00:28;;;;;;;8.85;4.82;;;20.20;86.00;;;;;;5054436;28;20470;-65
2021/09/02 09:03:03;;;;;;;7.00;4.45;;;20.30;85.50;;;;;;5053970;28;20048;-66
2021/09/02 09:05:34;;;;;;;7.88;5.53;;;20.40;85.10;;;;;;5036333;28;20057;-66
2021/09/02 09:08:01;;;;;;;7.90;5.07;;;20.40;84.60;;;;;;5048136;28;20025;-65
2021/09/02 09:10:30;;;;;;;7.53;4.53;;;20.50;84.60;;;;;;5058456;28;20024;-65
2021/09/02 09:12:57;;;;;;;;;;;20.70;84.30;;;;;;5063829;28;20035;-65
2021/09/02 09:15:28;;;;;;;11.60;5.60;;;20.70;83.40;;;;;;5053853;28;19935;-65
2021/09/02 09:18:11;;;;;;;6.90;4.35;;;20.80;81.90;;;;;;5053992;28;20477;-65
2021/09/02 09:20:38;;;;;;;9.38;4.90;;;20.80;81.90;;;;;;5053901;28;20032;-65
2021/09/02 09:23:04;;;;;;;6.75;4.15;;;20.90;81.40;;;;;;5036001;28;20033;-65
2021/09/02 09:25:29;;;;;;;9.65;5.45;;;20.90;80.70;;;;;;5053803;28;20048;-65
2021/09/02 09:27:58;;;;;;;11.23;4.70;;;21.10;79.40;;;;;;5053676;28;20448;-65
2021/09/02 09:30:25;;;;;;;6.47;4.18;;;21.10;79.20;;;;;;5053733;28;20487;-66
2021/09/02 09:32:55;;;;;;;9.07;5.18;;;21.10;79.10;;;;;;5053660;28;20028;-66
2021/09/02 09:35:22;;;;;;;8.23;3.55;;;21.10;79.60;;;;;;5053782;28;20549;-66
2021/09/02 09:37:50;;;;;;;6.70;4.18;;;21.10;79.10;;;;;;5053292;28;20021;-66
2021/09/02 09:40:24;;;;;;;6.32;4.30;;;21.10;79.00;;;;;;5053387;28;20036;-66
2021/09/02 09:43:03;;;;;;;8.15;4.30;;;21.10;78.80;;;;;;5053394;28;20136;-66
2021/09/02 09:45:46;;;;;;;8.73;3.95;;;21.30;78.80;;;;;;5053715;28;20021;-66
2021/09/02 09:48:20;;;;;;;8.75;4.47;;;21.40;78.30;;;;;;5053522;28;20385;-66
2021/09/02 09:51:04;;;;;;;8.20;4.78;;;21.50;77.80;;;;;;5053088;28;20029;-65
2021/09/02 09:53:30;;;;;;;6.70;3.78;;;21.60;77.00;;;;;;5053497;28;20116;-66
2021/09/02 09:55:56;;;;;;;8.60;3.80;;;21.60;77.00;;;;;;5053127;28;20135;-66
2021/09/02 09:58:23;;;;;;;6.78;3.80;;;21.70;77.10;;;;;;5053320;28;20024;-66
2021/09/02 10:00:57;;;;;;;7.95;4.05;;;21.70;76.80;;;;;;5052908;28;20033;-66
2021/09/02 10:03:22;;;;;;;6.82;4.15;;;21.70;76.60;;;;;;5060869;28;20112;-66
2021/09/02 10:05:52;;;;;;;6.53;4.40;;;21.70;76.30;;;;;;5072279;28;20095;-66
2021/09/02 10:08:20;;;;;;;6.30;4.20;;;21.80;76.20;;;;;;5054460;28;20055;-66
2021/09/02 10:10:49;;;;;;;8.48;4.60;;;21.80;75.90;;;;;;5050861;28;20024;-66
2021/09/02 10:13:15;;;;;;;;;;;21.90;75.50;;;;;;5059974;28;20025;-65
2021/09/02 10:15:41;;;;;;;6.53;3.80;;;21.90;75.80;;;;;;5052843;28;19958;-66
2021/09/02 10:18:07;;;;;;;7.50;4.50;;;21.90;75.50;;;;;;5052870;28;20119;-65
2021/09/02 10:20:35;;;;;;;8.38;3.95;;;22.00;74.70;;;;;;5052708;28;20419;-65
2021/09/02 10:23:05;;;;;;;7.07;3.50;;;22.10;74.50;;;;;;5037919;28;20048;-65
2021/09/02 10:25:33;;;;;;;6.00;3.58;;;22.30;74.40;;;;;;5030486;28;20036;-65
2021/09/02 10:28:06;;;;;;;5.22;3.50;;;22.50;74.20;;;;;;5030415;28;20029;-65
2021/09/02 10:30:50;;;;;;;6.63;3.67;;;22.60;73.70;;;;;;5072354;28;20060;-65
2021/09/02 10:33:42;;;;;;;5.30;3.25;;;22.80;73.60;;;;;;5052515;28;20035;-65
2021/09/02 10:36:11;;;;;;;4.88;2.90;;;23.00;73.30;;;;;;5051502;28;20033;-65
2021/09/02 10:38:56;;;;;;;5.13;2.63;;;23.10;73.30;;;;;;5034588;28;20532;-66
2021/09/02 10:41:37;;;;;;;5.47;2.92;;;23.40;72.80;;;;;;5029827;28;20821;-65
2021/09/02 10:44:07;;;;;;;6.50;3.58;;;23.70;72.10;;;;;;5043857;28;20156;-66
2021/09/02 10:46:54;;;;;;;5.80;3.08;;;23.80;71.60;;;;;;5071166;28;20017;-66
2021/09/02 10:49:23;;;;;;;5.20;3.10;;;23.80;71.40;;;;;;5068436;28;20025;-66
2021/09/02 10:51:58;;;;;;;5.32;2.70;;;23.80;70.90;;;;;;5068723;28;20027;-65
2021/09/02 10:54:37;;;;;;;7.72;4.20;;;23.90;70.60;;;;;;5067613;28;20036;-66
2021/09/02 10:57:04;;;;;;;4.30;2.97;;;23.90;69.80;;;;;;5071116;28;20028;-65
2021/09/02 10:59:41;;;;;;;7.15;3.33;;;23.80;69.90;;;;;;5062209;28;20033;-65
2021/09/02 11:02:27;;;;;;;5.63;3.03;;;23.80;69.50;;;;;;5070913;28;20032;-66
2021/09/02 11:05:00;;;;;;;6.43;3.13;;;23.90;69.20;;;;;;5039655;28;20122;-66
2021/09/02 11:07:39;;;;;;;6.22;3.53;;;23.90;69.00;;;;;;5071921;28;20021;-65
2021/09/02 11:10:07;;;;;;;6.93;3.58;;;24.10;68.70;;;;;;5069158;28;20108;-66
2021/09/02 11:12:33;;;;;;;5.97;3.25;;;24.20;68.20;;;;;;5067941;28;20017;-66
2021/09/02 11:14:58;;;;;;;5.53;3.22;;;24.30;67.90;;;;;;5071676;28;20033;-65
2021/09/02 11:17:24;;;;;;;5.97;3.28;;;25.10;67.40;;;;;;5052593;28;20024;-66
2021/09/02 11:19:49;;;;;;;4.13;2.75;;;26.40;65.80;;;;;;5067479;28;20052;-66
2021/09/02 11:22:17;;;;;;;6.97;3.55;;;27.30;63.70;;;;;;5053600;28;20438;-66
2021/09/02 11:24:45;;;;;;;5.28;2.70;;;27.40;62.60;;;;;;5066582;28;20020;-66
2021/09/02 11:27:29;;;;;;;6.20;3.65;;;27.60;62.50;;;;;;5061965;28;20488;-66
2021/09/02 11:30:17;;;;;;;4.68;3.10;;;27.70;62.00;;;;;;5050313;28;20100;-66
2021/09/02 11:32:44;;;;;;;6.60;3.35;;;28.20;61.50;;;;;;5064825;28;20439;-66
2021/09/02 11:35:10;;;;;;;4.03;2.80;;;28.50;61.50;;;;;;5047467;28;20028;-66
2021/09/02 11:37:41;;;;;;;4.55;2.88;;;28.50;60.30;;;;;;5064565;28;20480;-66
2021/09/02 11:40:09;;;;;;;4.20;3.00;;;28.50;60.50;;;;;;5060388;28;20041;-66
2021/09/02 11:42:35;;;;;;;6.50;3.08;;;30.00;59.40;;;;;;5038521;28;20514;-66
2021/09/02 11:45:04;;;;;;;4.43;2.50;;;30.20;56.80;;;;;;5053222;28;20024;-66
2021/09/02 11:47:35;;;;;;;5.00;2.88;;;29.70;55.60;;;;;;5066377;28;20399;-66
2021/09/02 11:50:02;;;;;;;3.47;2.60;;;29.30;56.60;;;;;;5071227;28;20025;-66
2021/09/02 11:52:41;;;;;;;5.25;3.25;;;30.20;56.10;;;;;;5052049;28;20027;-66
2021/09/02 11:55:07;;;;;;;4.82;2.72;;;30.50;54.10;;;;;;5051260;28;20025;-66
2021/09/02 11:57:33;;;;;;;4.55;2.95;;;31.00;54.00;;;;;;5052068;28;20051;-66
2021/09/02 11:59:58;;;;;;;5.05;2.50;;;31.60;52.90;;;;;;5029383;28;21000;-66
2021/09/02 12:02:24;;;;;;;4.60;2.60;;;32.50;52.10;;;;;;5053620;28;20104;-66
2021/09/02 12:04:52;;;;;;;3.22;2.25;;;33.70;50.50;;;;;;5055324;28;20086;-66
2021/09/02 12:07:18;;;;;;;6.32;2.58;;;33.30;50.30;;;;;;5055504;28;20478;-66
2021/09/02 12:09:50;;;;;;;3.53;2.30;;;34.50;49.90;;;;;;5037497;28;20016;-66
2021/09/02 12:12:42;;;;;;;5.10;2.67;;;35.70;48.40;;;;;;5036082;28;20029;-66
2021/09/02 12:15:29;;;;;;;4.18;2.78;;;35.90;47.20;;;;;;5025958;28;20126;-66
2021/09/02 12:18:10;;;;;;;5.10;2.43;;;34.90;46.50;;;;;;5052704;28;20091;-66
2021/09/02 12:20:38;;;;;;;3.15;2.30;;;34.10;47.10;;;;;;5037030;28;20021;-66
2021/09/02 12:23:22;;;;;;;5.07;3.15;;;33.40;48.00;;;;;;5055035;28;20036;-66
2021/09/02 12:25:58;;;;;;;5.07;3.08;;;32.60;47.00;;;;;;5054992;28;20400;-66
2021/09/02 12:28:37;;;;;;;4.90;2.55;;;32.30;48.30;;;;;;5055200;28;20370;-66
2021/09/02 12:31:24;;;;;;;4.47;2.95;;;33.10;48.10;;;;;;5036939;28;20116;-66
2021/09/02 12:34:08;;;;;;;5.07;2.67;;;33.80;47.50;;;;;;5054994;28;20021;-66
2021/09/02 12:36:42;;;;;;;4.18;2.63;;;34.30;47.00;;;;;;5054918;28;20082;-66
2021/09/02 12:39:20;;;;;;;4.13;2.60;;;34.50;46.40;;;;;;5054579;28;20033;-66
2021/09/02 12:41:54;;;;;;;6.35;3.15;;;34.00;46.70;;;;;;5054474;28;20029;-66
2021/09/02 12:44:25;;;;;;;4.25;2.67;;;33.50;46.50;;;;;;5054534;28;20025;-66
2021/09/02 12:46:55;;;;;;;4.70;2.80;;;32.90;47.40;;;;;;5054673;28;20389;-66
2021/09/02 12:49:45;;;;;;;5.05;2.75;;;32.70;47.50;;;;;;5054807;28;20013;-66